Ana Sayfa
METAR-TAF:

METAR-TAF

Havaalanları :

Sanford Regional Airport

Sanford, Maine, Amerika Birleşik Devletleri

Enlem: 43-24N, Boylam: 070-43W, yükseklik: 74 m

Güncel hava durumu gözlemi

Rapor saat 19:56 UTC de 42 dakika önce yapıldı.
Rüzgar kuzeybatıdan 12 kt ve 23 kt'a kadar ani rüzgarlar
Sıcaklık 16°C
Nem 31%
Basınç 1016 hPa
Görüş mesafesi: 16.1 km
Açık gökyüzü

METAR: KSFM 311956Z AUTO 32012G23KT 10SM CLR 16/M01 A3000 RMK AO2 PK WND 28029/1937 SLP163 T01561006

Saat: 16:38 (20:38 UTC)


TAF: eksik

4.000'den fazla havaalanı için hava durumu gözlemleri ve tahminleri (METAR ve TAF raporları).

Kullanılabilir istasyonlar harita üzerinde sarı ve kırmızı noktalarla gösterilir.

İstasyonun adını görmek için fareyi noktanın üzerinde gezdirin.

Sonrasında hava gözlem ve tahminlerini görmek için tıklayın.

Haritayı değiştirmek için: yaklaştırmak için siyah artı işaretli yeşil düğmeye ve uzaklaştırmak için de eksi işaretli düğmeye hızla tıklayın; bitişik haritalar için yeşil okları kullanın.


METAR-TAF: